Patriot — WDC2859 — position and weather

sailwx.info

Track history (hours):
 
Tides and Currents Weather Stations Pressure Air Temp Water Temp Dewpoint Dewpoint Depression Visibility Wind Speed Wind Dir Waves Ship Positions

Patriot

Owner: Sortwell, Inc. dba AMNAV Maritime Services, Oakland, CA. More information available from US FCC via Universal Licensing System and Coast Guard Vessel Documentation Center.

Last reported at 2014-Nov-27 01:33 UTC. Time now 2014-Nov-27 01:45 UTC.
Position N 37°49' W 122°19'.

Length 31 m; draft 4.6 m.

Type: Tug. MMSI: 366998680.

Date/timePositionNaut miles runAvg speedWind from/ knotsBaromVisibWave heightAir tempDewpointWater temp
2014-Nov-27 01:33N 37°49' W 122°19'0 0.0
2014-Nov-27 00:33N 37°49' W 122°19'0 0.0
2014-Nov-26 23:33N 37°49' W 122°19'0 0.0
2014-Nov-26 22:33N 37°49' W 122°19'0 0.0
2014-Nov-26 21:33N 37°49' W 122°19'0 0.0
2014-Nov-26 20:33N 37°49' W 122°19'0 0.0
2014-Nov-26 19:33N 37°49' W 122°19'0 0.0
2014-Nov-26 18:33N 37°49' W 122°19'1 1.3
2014-Nov-26 17:33N 37°49' W 122°20'6 5.9
2014-Nov-26 16:33N 37°54' W 122°22'0 0.4
2014-Nov-26 15:33N 37°55' W 122°22'3 3.2
2014-Nov-26 14:33N 37°53' W 122°25'2 2.2
2014-Nov-26 13:33N 37°54' W 122°23'0 0.0
2014-Nov-26 12:33N 37°54' W 122°23'0 0.0
2014-Nov-26 11:33N 37°54' W 122°23'1 1.1
2014-Nov-26 10:33N 37°54' W 122°22'2 1.8
2014-Nov-26 09:33N 37°54' W 122°24'4 4.1
2014-Nov-26 08:33N 37°51' W 122°23'3 3.3
2014-Nov-26 07:33N 37°49' W 122°19'0 0.0
2014-Nov-26 06:33N 37°49' W 122°19'0 0.0
2014-Nov-26 05:33N 37°49' W 122°19'0 0.0
2014-Nov-26 04:33N 37°49' W 122°19'0 0.0
2014-Nov-26 03:33N 37°49' W 122°19'0 0.0
2014-Nov-26 02:33N 37°49' W 122°19'0 0.0
2014-Nov-26 01:33N 37°49' W 122°19'0 0.0
2014-Nov-26 00:33N 37°49' W 122°19'0 0.0
2014-Nov-25 23:33N 37°49' W 122°19'0 0.0
2014-Nov-25 22:33N 37°49' W 122°19'0 0.0
2014-Nov-25 21:33N 37°49' W 122°19'0 0.0
2014-Nov-25 20:33N 37°49' W 122°19'0 0.0
2014-Nov-25 19:33N 37°49' W 122°19'0 0.0
2014-Nov-25 18:33N 37°49' W 122°19'0 0.0
2014-Nov-25 17:33N 37°49' W 122°19'0 0.0
2014-Nov-25 16:33N 37°49' W 122°19'0 0.0
2014-Nov-25 11:33N 37°49' W 122°19'0 0.0
2014-Nov-25 10:33N 37°49' W 122°19'0 0.0
2014-Nov-25 09:33N 37°49' W 122°19'0 0.0
2014-Nov-25 08:33N 37°49' W 122°19'0 0.0
2014-Nov-25 07:33N 37°49' W 122°19'0 0.0
2014-Nov-25 06:33N 37°49' W 122°19'0 0.0
2014-Nov-25 05:33N 37°49' W 122°19'0 0.0
2014-Nov-25 04:33N 37°49' W 122°19'0 0.0
2014-Nov-25 03:33N 37°49' W 122°19'0 0.0
2014-Nov-25 02:33N 37°49' W 122°19'0 0.0
2014-Nov-25 01:33N 37°49' W 122°19'0 0.0
2014-Nov-25 00:33N 37°49' W 122°19'0 0.0
2014-Nov-24 23:33N 37°49' W 122°19'0 0.0
2014-Nov-24 22:33N 37°49' W 122°19'0 0.0
2014-Nov-24 21:33N 37°49' W 122°19'0 0.0
2014-Nov-24 20:33N 37°49' W 122°19'0 0.0
2014-Nov-24 19:33N 37°49' W 122°19'0 0.0
2014-Nov-24 18:33N 37°49' W 122°19'0 0.0
2014-Nov-24 17:33N 37°49' W 122°19'0 0.0
2014-Nov-24 16:33N 37°49' W 122°19'0 0.0
2014-Nov-24 15:33N 37°49' W 122°19'0 0.0
2014-Nov-24 14:33N 37°49' W 122°19'0 0.0
2014-Nov-24 13:33N 37°49' W 122°19'0 0.0
2014-Nov-24 12:33N 37°49' W 122°19'0 0.0
2014-Nov-24 11:33N 37°49' W 122°19'0 0.0
2014-Nov-24 10:33N 37°49' W 122°19'0 0.0
2014-Nov-24 09:33N 37°49' W 122°19'0 0.0
2014-Nov-24 08:33N 37°49' W 122°19'0 0.0
2014-Nov-24 07:33N 37°49' W 122°19'0 0.0
2014-Nov-24 06:33N 37°49' W 122°19'0 0.0
2014-Nov-24 05:33N 37°49' W 122°19'0 0.0
2014-Nov-24 04:33N 37°49' W 122°19'0 0.0
2014-Nov-24 03:33N 37°49' W 122°19'0 0.0
2014-Nov-24 02:33N 37°49' W 122°19'0 0.0
2014-Nov-24 01:33N 37°49' W 122°19'0 0.0
2014-Nov-24 00:33N 37°49' W 122°19'0 0.0
2014-Nov-23 23:33N 37°49' W 122°19'0 0.0
2014-Nov-23 22:33N 37°49' W 122°19'0 0.0
2014-Nov-23 21:33N 37°49' W 122°19'0 0.0
2014-Nov-23 20:33N 37°49' W 122°19'0 0.0
2014-Nov-23 19:33N 37°49' W 122°19'0 0.0
2014-Nov-23 18:33N 37°49' W 122°19'0 0.0
2014-Nov-23 17:33N 37°49' W 122°19'0 0.0
2014-Nov-23 16:33N 37°49' W 122°19'0 0.0
2014-Nov-23 15:33N 37°49' W 122°19'0 0.0
2014-Nov-23 14:33N 37°49' W 122°19'0 0.0
2014-Nov-23 13:33N 37°49' W 122°19'0 0.0
2014-Nov-23 12:33N 37°49' W 122°19'0 0.0
2014-Nov-23 11:33N 37°49' W 122°19'0 0.0
2014-Nov-23 10:33N 37°49' W 122°19'0 0.0
2014-Nov-23 09:33N 37°49' W 122°19'0 0.0
2014-Nov-23 08:33N 37°49' W 122°19'0 0.0
2014-Nov-23 07:33N 37°49' W 122°19'0 0.0
2014-Nov-23 06:33N 37°49' W 122°19'0 0.0
2014-Nov-23 05:33N 37°49' W 122°19'0 0.0
2014-Nov-23 04:33N 37°49' W 122°19'0 0.0
2014-Nov-23 03:33N 37°49' W 122°19'0 0.0
2014-Nov-23 02:33N 37°49' W 122°19'0 0.0
2014-Nov-23 01:33N 37°49' W 122°19'0 0.0
2014-Nov-23 00:33N 37°49' W 122°19'0 0.0
2014-Nov-22 23:33N 37°49' W 122°19'0 0.0
2014-Nov-22 22:33N 37°49' W 122°19'0 0.0
2014-Nov-22 21:33N 37°49' W 122°19'0 0.0
2014-Nov-22 20:33N 37°49' W 122°19'0 0.0
2014-Nov-22 19:33N 37°49' W 122°19'0 0.0
2014-Nov-22 18:33N 37°49' W 122°19'0 0.0
2014-Nov-22 17:33N 37°49' W 122°19'0 0.0
2014-Nov-22 16:33N 37°49' W 122°19'0 0.0
2014-Nov-22 15:33N 37°49' W 122°19'0 0.0
2014-Nov-22 14:33N 37°49' W 122°19'0 0.0
2014-Nov-22 13:33N 37°49' W 122°19'0 0.0
2014-Nov-22 12:33N 37°49' W 122°19'0 0.0
2014-Nov-22 11:33N 37°49' W 122°19'0 0.0
2014-Nov-22 10:33N 37°49' W 122°19'0 0.0
2014-Nov-22 09:33N 37°49' W 122°19'0 0.0
2014-Nov-22 08:33N 37°49' W 122°19'0 0.0
2014-Nov-22 07:33N 37°49' W 122°19'0 0.0
2014-Nov-22 06:33N 37°49' W 122°19'0 0.0
2014-Nov-22 05:33N 37°49' W 122°19'0 0.0
2014-Nov-22 04:33N 37°49' W 122°19'0 0.0
2014-Nov-22 03:33N 37°49' W 122°19'1 0.7
2014-Nov-22 02:33N 37°49' W 122°19'2 1.9
2014-Nov-22 01:33N 37°48' W 122°21'1 0.8
2014-Nov-22 00:33N 37°48' W 122°21'2 1.8
2014-Nov-21 23:33N 37°49' W 122°19'0 0.0
2014-Nov-21 22:33N 37°49' W 122°19'0 0.0
2014-Nov-21 21:34N 37°49' W 122°19'0 0.0
2014-Nov-21 20:34N 37°49' W 122°19'0 0.0
2014-Nov-21 18:33N 37°49' W 122°19'0 0.0
2014-Nov-21 17:33N 37°49' W 122°19'0 0.0
2014-Nov-21 16:33N 37°49' W 122°19'0 0.0
2014-Nov-21 15:33N 37°49' W 122°19'0 0.0
2014-Nov-21 14:33N 37°49' W 122°19'0 0.0
2014-Nov-21 13:33N 37°49' W 122°19'0 0.0
2014-Nov-21 12:33N 37°49' W 122°19'0 0.0
2014-Nov-21 11:33N 37°49' W 122°19'0 0.0
2014-Nov-21 10:33N 37°49' W 122°19'0 0.0
2014-Nov-21 09:33N 37°49' W 122°19'0 0.0
2014-Nov-21 08:33N 37°49' W 122°19'0 0.0
2014-Nov-21 07:34N 37°49' W 122°19'0 0.0
2014-Nov-21 06:33N 37°49' W 122°19'0 0.0
2014-Nov-21 05:33N 37°49' W 122°19'0 0.0
2014-Nov-21 04:33N 37°49' W 122°19'0 0.0
2014-Nov-21 03:33N 37°49' W 122°19'0 0.0
2014-Nov-21 02:33N 37°49' W 122°19'0 0.0
2014-Nov-21 01:33N 37°49' W 122°19'0 0.0
2014-Nov-21 00:33N 37°49' W 122°19'0 0.0
2014-Nov-20 23:33N 37°49' W 122°19'0 0.0
2014-Nov-20 22:33N 37°49' W 122°19'0 0.0
2014-Nov-20 21:33N 37°49' W 122°19'0 0.0
2014-Nov-20 20:33N 37°49' W 122°19'0 0.0
2014-Nov-20 19:33N 37°49' W 122°19'0 0.0
2014-Nov-20 18:33N 37°49' W 122°19'0 0.0
2014-Nov-20 17:33N 37°49' W 122°19'0 0.0
2014-Nov-20 16:33N 37°49' W 122°19'0 0.0
2014-Nov-20 15:33N 37°49' W 122°19'0 0.0
2014-Nov-20 14:33N 37°49' W 122°19'0 0.0
2014-Nov-20 13:33N 37°49' W 122°19'0 0.0
2014-Nov-20 12:33N 37°49' W 122°19'0 0.0
2014-Nov-20 11:33N 37°49' W 122°19'0 0.0
2014-Nov-20 10:33N 37°49' W 122°19'0 0.0
2014-Nov-20 09:33N 37°49' W 122°19'0 0.0
2014-Nov-20 08:33N 37°49' W 122°19'0 0.0
2014-Nov-20 07:33N 37°49' W 122°19'0 0.0
2014-Nov-20 06:33N 37°49' W 122°19'0 0.0
2014-Nov-20 05:33N 37°49' W 122°19'5 5.1
2014-Nov-20 04:33N 37°52' W 122°24'3 2.7
2014-Nov-20 03:33N 37°54' W 122°22'3 2.9
2014-Nov-20 02:34N 37°55' W 122°25'5 5.3
2014-Nov-20 01:33N 37°50' W 122°22'3 2.6
2014-Nov-20 00:33N 37°49' W 122°19'0 0.0
2014-Nov-19 23:33N 37°49' W 122°19'0 0.0
2014-Nov-19 22:33N 37°49' W 122°19'0 0.0
2014-Nov-19 21:33N 37°49' W 122°19'0 0.0
2014-Nov-19 20:33N 37°49' W 122°19'0 0.0
2014-Nov-19 19:33N 37°49' W 122°19'0 0.0
2014-Nov-19 18:33N 37°49' W 122°19'0 0.0
2014-Nov-19 17:33N 37°49' W 122°19'0 0.0
2014-Nov-19 16:33N 37°49' W 122°19'0 0.0
2014-Nov-19 15:33N 37°49' W 122°19'2 1.5
2014-Nov-19 14:33N 37°48' W 122°20'1 0.7
2014-Nov-19 13:33N 37°48' W 122°21'1 0.7
2014-Nov-19 12:33N 37°48' W 122°20'0 0.5
2014-Nov-19 11:33N 37°49' W 122°20'1 1.1
2014-Nov-19 10:33N 37°49' W 122°19'0 0.0
2014-Nov-19 09:33N 37°49' W 122°19'0 0.0
2014-Nov-19 08:33N 37°49' W 122°19'0 0.0
2014-Nov-19 07:33N 37°49' W 122°19'0 0.0
2014-Nov-19 06:33N 37°49' W 122°19'0 0.0
2014-Nov-19 05:33N 37°49' W 122°19'0 0.0
2014-Nov-19 04:33N 37°49' W 122°19'0 0.0
2014-Nov-19 03:34N 37°49' W 122°19'0 0.0
2014-Nov-19 02:34N 37°49' W 122°19'0 0.0
2014-Nov-19 01:34N 37°49' W 122°19'0 0.0
2014-Nov-19 00:34N 37°49' W 122°19'0 0.0
2014-Nov-18 23:34N 37°49' W 122°19'0 0.0
2014-Nov-18 22:33N 37°49' W 122°19'0 0.0
2014-Nov-18 21:34N 37°49' W 122°19'0 0.0
2014-Nov-18 20:34N 37°49' W 122°19'0 0.0
2014-Nov-18 19:33N 37°49' W 122°19'0 0.0
2014-Nov-18 18:34N 37°49' W 122°19'0 0.0
2014-Nov-18 17:33N 37°49' W 122°19'0 0.0
2014-Nov-18 16:33N 37°49' W 122°19'0 0.0
2014-Nov-18 15:33N 37°49' W 122°19'0 0.0
2014-Nov-18 14:34N 37°49' W 122°19'0 0.0
2014-Nov-18 13:34N 37°49' W 122°19'0 0.0
2014-Nov-18 12:33N 37°49' W 122°19'0 0.0
2014-Nov-18 11:34N 37°49' W 122°19'0 0.0
2014-Nov-18 10:33N 37°49' W 122°19'0 0.0
2014-Nov-18 09:34N 37°49' W 122°19'0 0.0
2014-Nov-18 08:34N 37°49' W 122°19'0 0.0
2014-Nov-18 07:34N 37°49' W 122°19'0 0.0
2014-Nov-18 06:34N 37°49' W 122°19'0 0.0
2014-Nov-18 05:33N 37°49' W 122°19'0 0.0
2014-Nov-18 04:34N 37°49' W 122°19'0 0.0
2014-Nov-18 03:34N 37°49' W 122°19'0 0.0
2014-Nov-18 02:33N 37°49' W 122°19'0 0.0
2014-Nov-18 01:33N 37°49' W 122°19'0 0.0
2014-Nov-18 00:33N 37°49' W 122°19'0 0.0
2014-Nov-17 23:33N 37°49' W 122°19'0 0.0
2014-Nov-17 22:33N 37°49' W 122°19'0 0.0
2014-Nov-17 21:34N 37°49' W 122°19'0 0.0
2014-Nov-17 20:34N 37°49' W 122°19'0 0.0
2014-Nov-17 19:34N 37°49' W 122°19'0 0.0
2014-Nov-17 18:34N 37°49' W 122°19'0 0.0
2014-Nov-17 17:34N 37°49' W 122°19'0 0.0
2014-Nov-17 16:34N 37°49' W 122°19'0 0.0
2014-Nov-17 15:33N 37°49' W 122°19'0 0.0
2014-Nov-17 14:34N 37°49' W 122°19'0 0.0
2014-Nov-17 13:34N 37°49' W 122°19'0 0.0
2014-Nov-17 12:34N 37°49' W 122°19'0 0.0
2014-Nov-17 11:34N 37°49' W 122°19'0 0.0
2014-Nov-17 10:34N 37°49' W 122°19'0 0.0
2014-Nov-17 09:34N 37°49' W 122°19'0 0.0
2014-Nov-17 08:33N 37°49' W 122°19'6 6.2
2014-Nov-17 07:33N 37°53' W 122°25'11 9.5
2014-Nov-17 06:26N 38°03' W 122°19'8 4.3
2014-Nov-17 04:33N 38°02' W 122°09'  
Track history (hours):
 
Tides and Currents Weather Stations Pressure Air Temp Water Temp Dewpoint Dewpoint Depression Visibility Wind Speed Wind Dir Waves Ship Positions

Patriot

Owner: Sortwell, Inc. dba AMNAV Maritime Services, Oakland, CA. More information available from US FCC via Universal Licensing System and Coast Guard Vessel Documentation Center.

Last reported at 2014-Nov-27 01:33 UTC. Time now 2014-Nov-27 01:45 UTC.
Position N 37°49' W 122°19'.

Length 31 m; draft 4.6 m.

Type: Tug. MMSI: 366998680.

Date/timePositionNaut miles runAvg speedWind from/ knotsBaromVisibWave heightAir tempDewpointWater temp
2014-Nov-27 01:33N 37°49' W 122°19'0 0.0
2014-Nov-27 00:33N 37°49' W 122°19'0 0.0
2014-Nov-26 23:33N 37°49' W 122°19'0 0.0
2014-Nov-26 22:33N 37°49' W 122°19'0 0.0
2014-Nov-26 21:33N 37°49' W 122°19'0 0.0
2014-Nov-26 20:33N 37°49' W 122°19'0 0.0
2014-Nov-26 19:33N 37°49' W 122°19'0 0.0
2014-Nov-26 18:33N 37°49' W 122°19'1 1.3
2014-Nov-26 17:33N 37°49' W 122°20'6 5.9
2014-Nov-26 16:33N 37°54' W 122°22'0 0.4
2014-Nov-26 15:33N 37°55' W 122°22'3 3.2
2014-Nov-26 14:33N 37°53' W 122°25'2 2.2
2014-Nov-26 13:33N 37°54' W 122°23'0 0.0
2014-Nov-26 12:33N 37°54' W 122°23'0 0.0
2014-Nov-26 11:33N 37°54' W 122°23'1 1.1
2014-Nov-26 10:33N 37°54' W 122°22'2 1.8
2014-Nov-26 09:33N 37°54' W 122°24'4 4.1
2014-Nov-26 08:33N 37°51' W 122°23'3 3.3
2014-Nov-26 07:33N 37°49' W 122°19'0 0.0
2014-Nov-26 06:33N 37°49' W 122°19'0 0.0
2014-Nov-26 05:33N 37°49' W 122°19'0 0.0
2014-Nov-26 04:33N 37°49' W 122°19'0 0.0
2014-Nov-26 03:33N 37°49' W 122°19'0 0.0
2014-Nov-26 02:33N 37°49' W 122°19'0 0.0
2014-Nov-26 01:33N 37°49' W 122°19'0 0.0
2014-Nov-26 00:33N 37°49' W 122°19'0 0.0
2014-Nov-25 23:33N 37°49' W 122°19'0 0.0
2014-Nov-25 22:33N 37°49' W 122°19'0 0.0
2014-Nov-25 21:33N 37°49' W 122°19'0 0.0
2014-Nov-25 20:33N 37°49' W 122°19'0 0.0
2014-Nov-25 19:33N 37°49' W 122°19'0 0.0
2014-Nov-25 18:33N 37°49' W 122°19'0 0.0
2014-Nov-25 17:33N 37°49' W 122°19'0 0.0
2014-Nov-25 16:33N 37°49' W 122°19'0 0.0
2014-Nov-25 11:33N 37°49' W 122°19'0 0.0
2014-Nov-25 10:33N 37°49' W 122°19'0 0.0
2014-Nov-25 09:33N 37°49' W 122°19'0 0.0
2014-Nov-25 08:33N 37°49' W 122°19'0 0.0
2014-Nov-25 07:33N 37°49' W 122°19'0 0.0
2014-Nov-25 06:33N 37°49' W 122°19'0 0.0
2014-Nov-25 05:33N 37°49' W 122°19'0 0.0
2014-Nov-25 04:33N 37°49' W 122°19'0 0.0
2014-Nov-25 03:33N 37°49' W 122°19'0 0.0
2014-Nov-25 02:33N 37°49' W 122°19'0 0.0
2014-Nov-25 01:33N 37°49' W 122°19'0 0.0
2014-Nov-25 00:33N 37°49' W 122°19'0 0.0
2014-Nov-24 23:33N 37°49' W 122°19'0 0.0
2014-Nov-24 22:33N 37°49' W 122°19'0 0.0
2014-Nov-24 21:33N 37°49' W 122°19'0 0.0
2014-Nov-24 20:33N 37°49' W 122°19'0 0.0
2014-Nov-24 19:33N 37°49' W 122°19'0 0.0
2014-Nov-24 18:33N 37°49' W 122°19'0 0.0
2014-Nov-24 17:33N 37°49' W 122°19'0 0.0
2014-Nov-24 16:33N 37°49' W 122°19'0 0.0
2014-Nov-24 15:33N 37°49' W 122°19'0 0.0
2014-Nov-24 14:33N 37°49' W 122°19'0 0.0
2014-Nov-24 13:33N 37°49' W 122°19'0 0.0
2014-Nov-24 12:33N 37°49' W 122°19'0 0.0
2014-Nov-24 11:33N 37°49' W 122°19'0 0.0
2014-Nov-24 10:33N 37°49' W 122°19'0 0.0
2014-Nov-24 09:33N 37°49' W 122°19'0 0.0
2014-Nov-24 08:33N 37°49' W 122°19'0 0.0
2014-Nov-24 07:33N 37°49' W 122°19'0 0.0
2014-Nov-24 06:33N 37°49' W 122°19'0 0.0
2014-Nov-24 05:33N 37°49' W 122°19'0 0.0
2014-Nov-24 04:33N 37°49' W 122°19'0 0.0
2014-Nov-24 03:33N 37°49' W 122°19'0 0.0
2014-Nov-24 02:33N 37°49' W 122°19'0 0.0
2014-Nov-24 01:33N 37°49' W 122°19'0 0.0
2014-Nov-24 00:33N 37°49' W 122°19'0 0.0
2014-Nov-23 23:33N 37°49' W 122°19'0 0.0
2014-Nov-23 22:33N 37°49' W 122°19'0 0.0
2014-Nov-23 21:33N 37°49' W 122°19'0 0.0
2014-Nov-23 20:33N 37°49' W 122°19'0 0.0
2014-Nov-23 19:33N 37°49' W 122°19'0 0.0
2014-Nov-23 18:33N 37°49' W 122°19'0 0.0
2014-Nov-23 17:33N 37°49' W 122°19'0 0.0
2014-Nov-23 16:33N 37°49' W 122°19'0 0.0
2014-Nov-23 15:33N 37°49' W 122°19'0 0.0
2014-Nov-23 14:33N 37°49' W 122°19'0 0.0
2014-Nov-23 13:33N 37°49' W 122°19'0 0.0
2014-Nov-23 12:33N 37°49' W 122°19'0 0.0
2014-Nov-23 11:33N 37°49' W 122°19'0 0.0
2014-Nov-23 10:33N 37°49' W 122°19'0 0.0
2014-Nov-23 09:33N 37°49' W 122°19'0 0.0
2014-Nov-23 08:33N 37°49' W 122°19'0 0.0
2014-Nov-23 07:33N 37°49' W 122°19'0 0.0
2014-Nov-23 06:33N 37°49' W 122°19'0 0.0
2014-Nov-23 05:33N 37°49' W 122°19'0 0.0
2014-Nov-23 04:33N 37°49' W 122°19'0 0.0
2014-Nov-23 03:33N 37°49' W 122°19'0 0.0
2014-Nov-23 02:33N 37°49' W 122°19'0 0.0
2014-Nov-23 01:33N 37°49' W 122°19'0 0.0
2014-Nov-23 00:33N 37°49' W 122°19'0 0.0
2014-Nov-22 23:33N 37°49' W 122°19'0 0.0
2014-Nov-22 22:33N 37°49' W 122°19'0 0.0
2014-Nov-22 21:33N 37°49' W 122°19'0 0.0
2014-Nov-22 20:33N 37°49' W 122°19'0 0.0
2014-Nov-22 19:33N 37°49' W 122°19'0 0.0
2014-Nov-22 18:33N 37°49' W 122°19'0 0.0
2014-Nov-22 17:33N 37°49' W 122°19'0 0.0
2014-Nov-22 16:33N 37°49' W 122°19'0 0.0
2014-Nov-22 15:33N 37°49' W 122°19'0 0.0
2014-Nov-22 14:33N 37°49' W 122°19'0 0.0
2014-Nov-22 13:33N 37°49' W 122°19'0 0.0
2014-Nov-22 12:33N 37°49' W 122°19'0 0.0
2014-Nov-22 11:33N 37°49' W 122°19'0 0.0
2014-Nov-22 10:33N 37°49' W 122°19'0 0.0
2014-Nov-22 09:33N 37°49' W 122°19'0 0.0
2014-Nov-22 08:33N 37°49' W 122°19'0 0.0
2014-Nov-22 07:33N 37°49' W 122°19'0 0.0
2014-Nov-22 06:33N 37°49' W 122°19'0 0.0
2014-Nov-22 05:33N 37°49' W 122°19'0 0.0
2014-Nov-22 04:33N 37°49' W 122°19'0 0.0
2014-Nov-22 03:33N 37°49' W 122°19'1 0.7
2014-Nov-22 02:33N 37°49' W 122°19'2 1.9
2014-Nov-22 01:33N 37°48' W 122°21'1 0.8
2014-Nov-22 00:33N 37°48' W 122°21'2 1.8
2014-Nov-21 23:33N 37°49' W 122°19'0 0.0
2014-Nov-21 22:33N 37°49' W 122°19'0 0.0
2014-Nov-21 21:34N 37°49' W 122°19'0 0.0
2014-Nov-21 20:34N 37°49' W 122°19'0 0.0
2014-Nov-21 18:33N 37°49' W 122°19'0 0.0
2014-Nov-21 17:33N 37°49' W 122°19'0 0.0
2014-Nov-21 16:33N 37°49' W 122°19'0 0.0
2014-Nov-21 15:33N 37°49' W 122°19'0 0.0
2014-Nov-21 14:33N 37°49' W 122°19'0 0.0
2014-Nov-21 13:33N 37°49' W 122°19'0 0.0
2014-Nov-21 12:33N 37°49' W 122°19'0 0.0
2014-Nov-21 11:33N 37°49' W 122°19'0 0.0
2014-Nov-21 10:33N 37°49' W 122°19'0 0.0
2014-Nov-21 09:33N 37°49' W 122°19'0 0.0
2014-Nov-21 08:33N 37°49' W 122°19'0 0.0
2014-Nov-21 07:34N 37°49' W 122°19'0 0.0
2014-Nov-21 06:33N 37°49' W 122°19'0 0.0
2014-Nov-21 05:33N 37°49' W 122°19'0 0.0
2014-Nov-21 04:33N 37°49' W 122°19'0 0.0
2014-Nov-21 03:33N 37°49' W 122°19'0 0.0
2014-Nov-21 02:33N 37°49' W 122°19'0 0.0
2014-Nov-21 01:33N 37°49' W 122°19'0 0.0
2014-Nov-21 00:33N 37°49' W 122°19'0 0.0
2014-Nov-20 23:33N 37°49' W 122°19'0 0.0
2014-Nov-20 22:33N 37°49' W 122°19'0 0.0
2014-Nov-20 21:33N 37°49' W 122°19'0 0.0
2014-Nov-20 20:33N 37°49' W 122°19'0 0.0
2014-Nov-20 19:33N 37°49' W 122°19'0 0.0
2014-Nov-20 18:33N 37°49' W 122°19'0 0.0
2014-Nov-20 17:33N 37°49' W 122°19'0 0.0
2014-Nov-20 16:33N 37°49' W 122°19'0 0.0
2014-Nov-20 15:33N 37°49' W 122°19'0 0.0
2014-Nov-20 14:33N 37°49' W 122°19'0 0.0
2014-Nov-20 13:33N 37°49' W 122°19'0 0.0
2014-Nov-20 12:33N 37°49' W 122°19'0 0.0
2014-Nov-20 11:33N 37°49' W 122°19'0 0.0
2014-Nov-20 10:33N 37°49' W 122°19'0 0.0
2014-Nov-20 09:33N 37°49' W 122°19'0 0.0
2014-Nov-20 08:33N 37°49' W 122°19'0 0.0
2014-Nov-20 07:33N 37°49' W 122°19'0 0.0
2014-Nov-20 06:33N 37°49' W 122°19'0 0.0
2014-Nov-20 05:33N 37°49' W 122°19'5 5.1
2014-Nov-20 04:33N 37°52' W 122°24'3 2.7
2014-Nov-20 03:33N 37°54' W 122°22'3 2.9
2014-Nov-20 02:34N 37°55' W 122°25'5 5.3
2014-Nov-20 01:33N 37°50' W 122°22'3 2.6
2014-Nov-20 00:33N 37°49' W 122°19'0 0.0
2014-Nov-19 23:33N 37°49' W 122°19'0 0.0
2014-Nov-19 22:33N 37°49' W 122°19'0 0.0
2014-Nov-19 21:33N 37°49' W 122°19'0 0.0
2014-Nov-19 20:33N 37°49' W 122°19'0 0.0
2014-Nov-19 19:33N 37°49' W 122°19'0 0.0
2014-Nov-19 18:33N 37°49' W 122°19'0 0.0
2014-Nov-19 17:33N 37°49' W 122°19'0 0.0
2014-Nov-19 16:33N 37°49' W 122°19'0 0.0
2014-Nov-19 15:33N 37°49' W 122°19'2 1.5
2014-Nov-19 14:33N 37°48' W 122°20'1 0.7
2014-Nov-19 13:33N 37°48' W 122°21'1 0.7
2014-Nov-19 12:33N 37°48' W 122°20'0 0.5
2014-Nov-19 11:33N 37°49' W 122°20'1 1.1
2014-Nov-19 10:33N 37°49' W 122°19'0 0.0
2014-Nov-19 09:33N 37°49' W 122°19'0 0.0
2014-Nov-19 08:33N 37°49' W 122°19'0 0.0
2014-Nov-19 07:33N 37°49' W 122°19'0 0.0
2014-Nov-19 06:33N 37°49' W 122°19'0 0.0
2014-Nov-19 05:33N 37°49' W 122°19'0 0.0
2014-Nov-19 04:33N 37°49' W 122°19'0 0.0
2014-Nov-19 03:34N 37°49' W 122°19'0 0.0
2014-Nov-19 02:34N 37°49' W 122°19'0 0.0
2014-Nov-19 01:34N 37°49' W 122°19'0 0.0
2014-Nov-19 00:34N 37°49' W 122°19'0 0.0
2014-Nov-18 23:34N 37°49' W 122°19'0 0.0
2014-Nov-18 22:33N 37°49' W 122°19'0 0.0
2014-Nov-18 21:34N 37°49' W 122°19'0 0.0
2014-Nov-18 20:34N 37°49' W 122°19'0 0.0
2014-Nov-18 19:33N 37°49' W 122°19'0 0.0
2014-Nov-18 18:34N 37°49' W 122°19'0 0.0
2014-Nov-18 17:33N 37°49' W 122°19'0 0.0
2014-Nov-18 16:33N 37°49' W 122°19'0 0.0
2014-Nov-18 15:33N 37°49' W 122°19'0 0.0
2014-Nov-18 14:34N 37°49' W 122°19'0 0.0
2014-Nov-18 13:34N 37°49' W 122°19'0 0.0
2014-Nov-18 12:33N 37°49' W 122°19'0 0.0
2014-Nov-18 11:34N 37°49' W 122°19'0 0.0
2014-Nov-18 10:33N 37°49' W 122°19'0 0.0
2014-Nov-18 09:34N 37°49' W 122°19'0 0.0
2014-Nov-18 08:34N 37°49' W 122°19'0 0.0
2014-Nov-18 07:34N 37°49' W 122°19'0 0.0
2014-Nov-18 06:34N 37°49' W 122°19'0 0.0
2014-Nov-18 05:33N 37°49' W 122°19'0 0.0
2014-Nov-18 04:34N 37°49' W 122°19'0 0.0
2014-Nov-18 03:34N 37°49' W 122°19'0 0.0
2014-Nov-18 02:33N 37°49' W 122°19'0 0.0
2014-Nov-18 01:33N 37°49' W 122°19'0 0.0
2014-Nov-18 00:33N 37°49' W 122°19'0 0.0
2014-Nov-17 23:33N 37°49' W 122°19'0 0.0
2014-Nov-17 22:33N 37°49' W 122°19'0 0.0
2014-Nov-17 21:34N 37°49' W 122°19'0 0.0
2014-Nov-17 20:34N 37°49' W 122°19'0 0.0
2014-Nov-17 19:34N 37°49' W 122°19'0 0.0
2014-Nov-17 18:34N 37°49' W 122°19'0 0.0
2014-Nov-17 17:34N 37°49' W 122°19'0 0.0
2014-Nov-17 16:34N 37°49' W 122°19'0 0.0
2014-Nov-17 15:33N 37°49' W 122°19'0 0.0
2014-Nov-17 14:34N 37°49' W 122°19'0 0.0
2014-Nov-17 13:34N 37°49' W 122°19'0 0.0
2014-Nov-17 12:34N 37°49' W 122°19'0 0.0
2014-Nov-17 11:34N 37°49' W 122°19'0 0.0
2014-Nov-17 10:34N 37°49' W 122°19'0 0.0
2014-Nov-17 09:34N 37°49' W 122°19'0 0.0
2014-Nov-17 08:33N 37°49' W 122°19'6 6.2
2014-Nov-17 07:33N 37°53' W 122°25'11 9.5
2014-Nov-17 06:26N 38°03' W 122°19'8 4.3
2014-Nov-17 04:33N 38°02' W 122°09'  

Dump ship's entire track history